Time;durP1;ratioP1;P1;durP2;ratioP2;P2;SDS_P1;SDS_P2;PMS_P1;PMS_P2;Temp;Humidity;BMP_temperature;BMP_pressure;BME280_temperature;BME280_humidity;BME280_pressure;Samples;Min_cycle;Max_cycle;Signal;HPM_P1;HPM_P2
2024/04/16 00:00:18;;;;;;;;;;;;;;;20.28;49.36;99375.19;2238748;26;5892;-74
2024/04/16 00:01:20;;;;;;;;;;;;;;;20.28;49.85;99372.31;2229087;26;2021;-74
2024/04/16 00:02:21;;;;;;;;;;;;;;;20.28;49.46;99371.59;2242107;26;2140;-73
2024/04/16 00:03:23;;;;;;;;;;;;;;;20.25;49.59;99370.09;2237329;26;2265;-74
2024/04/16 00:04:24;;;;;;;;;;;;;;;20.28;49.65;99368.72;2238320;26;2275;-74
2024/04/16 00:05:26;;;;;;;;;;;;;;;20.27;49.67;99367.25;2235938;26;2105;-74
2024/04/16 00:06:28;;;;;;;;;;;;;;;20.28;49.35;99369.44;2236355;26;2161;-74
2024/04/16 00:07:29;;;;;;;;;;;;;;;20.27;49.31;99362.25;2241710;26;2184;-73
2024/04/16 00:08:31;;;;;;;;;;;;;;;20.28;49.68;99368.72;2234260;26;2263;-74
2024/04/16 00:09:32;;;;;;;;;;;;;;;20.28;49.43;99377.34;2238081;26;2216;-74
2024/04/16 00:10:34;;;;;;;;;;;;;;;20.27;49.18;99373.00;2229696;26;2323;-74
2024/04/16 00:11:35;;;;;;;;;;;;;;;20.27;49.41;99373.00;2239514;26;2422;-74
2024/04/16 00:12:37;;;;;;;;;;;;;;;20.26;49.56;99377.28;2235467;26;2361;-73
2024/04/16 00:13:38;;;;;;;;;;;;;;;20.27;49.76;99370.13;2238129;26;2461;-73
2024/04/16 00:14:40;;;;;;;;;;;;;;;20.26;49.23;99368.66;2234427;26;2293;-74
2024/04/16 00:15:41;;;;;;;;;;;;;;;20.26;49.49;99371.53;2235564;26;2159;-74
2024/04/16 00:16:43;;;;;;;;;;;;;;;20.26;49.07;99365.78;2237918;26;2190;-73
2024/04/16 00:17:45;;;;;;;;;;;;;;;20.24;49.45;99369.34;2237764;26;2199;-73
2024/04/16 00:18:47;;;;;;;;;;;;;;;20.24;49.57;99363.59;2236415;26;2432;-74
2024/04/16 00:19:48;;;;;;;;;;;;;;;20.25;49.89;99370.09;2235457;26;2265;-73
2024/04/16 00:20:50;;;;;;;;;;;;;;;20.24;49.69;99375.09;2237468;26;2082;-74
2024/04/16 00:21:51;;;;;;;;;;;;;;;20.24;49.89;99374.38;2235609;26;2347;-73
2024/04/16 00:22:53;;;;;;;;;;;;;;;20.24;49.69;99365.75;2235359;26;2559;-74
2024/04/16 00:23:54;;;;;;;;;;;;;;;20.25;49.33;99375.84;2232920;26;2415;-74
2024/04/16 00:24:56;;;;;;;;;;;;;;;20.24;49.45;99374.38;2237395;26;2109;-73
2024/04/16 00:25:57;;;;;;;;;;;;;;;20.24;49.72;99374.38;2237965;26;1977;-74
2024/04/16 00:26:59;;;;;;;;;;;;;;;20.24;49.09;99360.00;2236674;26;2181;-74
2024/04/16 00:28:00;;;;;;;;;;;;;;;20.24;49.52;99374.38;2236601;26;2357;-74
2024/04/16 00:29:02;;;;;;;;;;;;;;;20.25;49.89;99367.22;2237371;26;2284;-73
2024/04/16 00:30:03;;;;;;;;;;;;;;;20.23;49.64;99370.78;2235943;26;6099;-73
2024/04/16 00:31:05;;;;;;;;;;;;;;;20.23;49.73;99364.31;2232634;26;2246;-74
2024/04/16 00:32:06;;;;;;;;;;;;;;;20.23;49.12;99361.44;2238003;26;2181;-74
2024/04/16 00:33:08;;;;;;;;;;;;;;;20.23;49.52;99364.31;2236062;26;2258;-73
2024/04/16 00:34:09;;;;;;;;;;;;;;;20.23;49.56;99361.44;2233831;26;2433;-73
2024/04/16 00:35:11;;;;;;;;;;;;;;;20.24;49.63;99365.75;2239914;26;2406;-74
2024/04/16 00:36:12;;;;;;;;;;;;;;;20.23;49.62;99372.91;2236390;26;2105;-73
2024/04/16 00:37:14;;;;;;;;;;;;;;;20.23;49.19;99367.91;2234791;26;2406;-73
2024/04/16 00:38:15;;;;;;;;;;;;;;;20.23;49.84;99361.44;2237810;26;2345;-73
2024/04/16 00:39:17;;;;;;;;;;;;;;;20.22;49.45;99377.91;2238389;26;2046;-73
2024/04/16 00:40:18;;;;;;;;;;;;;;;20.23;49.35;99367.19;2234983;26;2179;-73
2024/04/16 00:41:20;;;;;;;;;;;;;;;20.22;49.34;99362.81;2237557;26;2236;-74
2024/04/16 00:42:22;;;;;;;;;;;;;;;20.21;49.73;99373.59;2235894;26;2362;-73
2024/04/16 00:43:23;;;;;;;;;;;;;;;20.22;49.28;99377.19;2246269;26;2234;-73
2024/04/16 00:44:27;;;;;;;;;;;;;;;20.22;49.55;99377.19;2249931;26;2268;-74
2024/04/16 00:45:28;;;;;;;;;;;;;;;20.21;49.57;99372.88;2235560;26;2325;-74
2024/04/16 00:46:30;;;;;;;;;;;;;;;20.21;49.87;99379.34;2236007;26;2406;-73
2024/04/16 00:47:31;;;;;;;;;;;;;;;20.21;49.24;99372.88;2237046;26;2260;-74
2024/04/16 00:48:34;;;;;;;;;;;;;;;20.20;49.45;99371.41;2233682;26;2461;-74
2024/04/16 00:49:36;;;;;;;;;;;;;;;20.20;49.43;99374.28;2237382;26;2488;-74
2024/04/16 00:50:37;;;;;;;;;;;;;;;20.19;49.18;99370.66;2234868;26;2308;-73
2024/04/16 00:51:39;;;;;;;;;;;;;;;20.20;49.01;99380.03;2237756;26;2173;-74
2024/04/16 00:52:41;;;;;;;;;;;;;;;20.19;49.61;99378.56;2237073;26;2340;-73
2024/04/16 00:53:43;;;;;;;;;;;;;;;20.20;49.63;99374.28;2235279;26;2528;-73
2024/04/16 00:54:44;;;;;;;;;;;;;;;20.20;49.35;99377.16;2238668;26;2171;-73
2024/04/16 00:55:46;;;;;;;;;;;;;;;20.19;49.55;99379.28;2237276;26;2127;-73
2024/04/16 00:56:48;;;;;;;;;;;;;;;20.20;48.99;99374.28;2236307;26;2254;-74
2024/04/16 00:57:50;;;;;;;;;;;;;;;20.20;49.59;99377.16;2235157;26;2463;-73
2024/04/16 00:58:51;;;;;;;;;;;;;;;20.19;49.54;99373.53;2236783;26;2215;-73
2024/04/16 00:59:55;;;;;;;;;;;;;;;20.19;49.24;99375.69;2238723;26;2124;-73
2024/04/16 01:00:57;;;;;;;;;;;;;;;20.20;49.56;99374.28;2231919;26;5985;-73
2024/04/16 01:01:58;;;;;;;;;;;;;;;20.20;49.35;99380.03;2226146;26;2246;-73
2024/04/16 01:03:00;;;;;;;;;;;;;;;20.18;49.77;99377.84;2234302;26;2289;-74
2024/04/16 01:04:01;;;;;;;;;;;;;;;20.19;49.21;99381.44;2236494;26;2353;-73
2024/04/16 01:05:03;;;;;;;;;;;;;;;20.18;49.45;99377.09;2232941;26;2237;-74
2024/04/16 01:06:05;;;;;;;;;;;;;;;20.18;49.29;99388.59;2236518;26;2253;-74
2024/04/16 01:07:07;;;;;;;;;;;;;;;20.18;49.42;99388.59;2236471;26;2168;-73
2024/04/16 01:08:09;;;;;;;;;;;;;;;20.18;49.73;99388.59;2238550;26;2060;-73
2024/04/16 01:09:11;;;;;;;;;;;;;;;20.18;49.40;99377.09;2242048;26;2116;-74
2024/04/16 01:10:13;;;;;;;;;;;;;;;20.18;49.68;99382.84;2234367;26;2284;-74
2024/04/16 01:11:21;;;;;;;;;;;;;;;20.17;49.10;99378.53;2234294;26;2264;-74
2024/04/16 01:12:23;;;;;;;;;;;;;;;20.17;49.15;99387.88;2237316;26;2148;-73
2024/04/16 01:13:24;;;;;;;;;;;;;;;20.17;49.20;99381.41;2234786;26;2254;-73
2024/04/16 01:14:26;;;;;;;;;;;;;;;20.17;49.02;99381.41;2235119;26;2293;-74
2024/04/16 01:15:27;;;;;;;;;;;;;;;20.17;49.21;99387.88;2234392;26;2328;-74
2024/04/16 01:16:29;;;;;;;;;;;;;;;20.16;49.41;99385.66;2236929;26;2325;-73
2024/04/16 01:17:32;;;;;;;;;;;;;;;20.17;49.11;99390.00;2235499;26;2317;-74
2024/04/16 01:18:34;;;;;;;;;;;;;;;20.16;49.68;99386.41;2236670;26;2347;-73
2024/04/16 01:19:35;;;;;;;;;;;;;;;20.17;49.56;99390.75;2242311;26;2221;-74
2024/04/16 01:20:38;;;;;;;;;;;;;;;20.16;49.57;99392.16;2238572;26;2216;-74
2024/04/16 01:21:39;;;;;;;;;;;;;;;20.17;49.50;99393.63;2233742;26;2320;-73
2024/04/16 01:22:46;;;;;;;;;;;;;;;20.17;49.33;99396.47;2237991;26;2169;-73
2024/04/16 01:23:48;;;;;;;;;;;;;;;20.17;49.80;99392.88;2237009;26;2274;-73
2024/04/16 01:24:49;;;;;;;;;;;;;;;20.17;49.67;99401.50;2238670;26;2243;-74
2024/04/16 01:25:51;;;;;;;;;;;;;;;20.17;49.71;99395.75;2240396;26;2441;-73
2024/04/16 01:26:52;;;;;;;;;;;;;;;20.19;49.57;99401.56;2236924;26;2156;-74
2024/04/16 01:27:54;;;;;;;;;;;;;;;20.19;49.35;99401.56;2236708;26;2349;-73
2024/04/16 01:28:55;;;;;;;;;;;;;;;20.17;49.37;99390.75;2234533;26;2119;-74
2024/04/16 01:29:57;;;;;;;;;;;;;;;20.19;49.76;99395.81;2231753;26;2267;-74
2024/04/16 01:30:58;;;;;;;;;;;;;;;20.19;49.40;99398.69;2233522;26;6034;-74
2024/04/16 01:31:59;;;;;;;;;;;;;;;20.19;49.55;99392.94;2234885;26;2229;-73
2024/04/16 01:33:01;;;;;;;;;;;;;;;20.22;49.28;99400.19;2236687;26;2356;-73
2024/04/16 01:34:03;;;;;;;;;;;;;;;20.22;49.39;99397.31;2235779;26;2345;-73
2024/04/16 01:35:04;;;;;;;;;;;;;;;20.20;49.00;99398.00;2236310;26;2254;-74
2024/04/16 01:36:06;;;;;;;;;;;;;;;20.21;49.09;99393.00;2233243;26;2611;-73
2024/04/16 01:37:08;;;;;;;;;;;;;;;20.23;49.62;99401.66;2239654;26;2131;-74
2024/04/16 01:38:09;;;;;;;;;;;;;;;20.23;49.29;99407.41;2236610;26;2157;-74
2024/04/16 01:39:11;;;;;;;;;;;;;;;20.24;49.21;99397.38;2237356;26;2113;-73
2024/04/16 01:40:12;;;;;;;;;;;;;;;20.23;49.16;99398.78;2231243;26;2269;-73
2024/04/16 01:41:16;;;;;;;;;;;;;;;20.24;49.23;99405.97;2233356;26;2260;-74
2024/04/16 01:42:17;;;;;;;;;;;;;;;20.23;49.10;99395.91;2229617;26;2112;-74
2024/04/16 01:43:19;;;;;;;;;;;;;;;20.25;48.94;99393.09;2253390;26;2636;-73
2024/04/16 01:44:21;;;;;;;;;;;;;;;20.25;48.78;99393.09;2249588;26;2096;-73
2024/04/16 01:45:22;;;;;;;;;;;;;;;20.24;49.62;99403.09;2233183;26;2242;-73
2024/04/16 01:46:23;;;;;;;;;;;;;;;20.24;49.33;99400.25;2233520;26;2258;-73
2024/04/16 01:47:25;;;;;;;;;;;;;;;20.25;49.38;99401.72;2235103;26;2273;-73
2024/04/16 01:48:27;;;;;;;;;;;;;;;20.25;49.49;99398.84;2235261;26;2424;-74
2024/04/16 01:49:28;;;;;;;;;;;;;;;20.24;48.90;99395.22;2236632;26;1987;-73
2024/04/16 01:50:30;;;;;;;;;;;;;;;20.24;49.64;99405.97;2235032;26;2316;-74
2024/04/16 01:51:31;;;;;;;;;;;;;;;20.24;49.17;99391.63;2238133;26;2159;-74
2024/04/16 01:52:32;;;;;;;;;;;;;;;20.24;49.04;99397.38;2229636;26;2247;-73
2024/04/16 01:53:34;;;;;;;;;;;;;;;20.24;49.17;99391.63;2235986;26;2291;-73
2024/04/16 01:54:35;;;;;;;;;;;;;;;20.22;49.33;99394.44;2236156;26;2294;-74
2024/04/16 01:55:38;;;;;;;;;;;;;;;20.24;49.50;99392.34;2236435;26;2067;-73
2024/04/16 01:56:40;;;;;;;;;;;;;;;20.24;49.21;99403.09;2236910;26;2067;-73
2024/04/16 01:57:41;;;;;;;;;;;;;;;20.23;49.35;99393.75;2228245;26;2280;-73
2024/04/16 01:58:42;;;;;;;;;;;;;;;20.23;49.53;99395.91;2238241;26;2101;-73
2024/04/16 01:59:44;;;;;;;;;;;;;;;20.24;49.75;99397.38;2234518;26;2402;-74
2024/04/16 02:00:45;;;;;;;;;;;;;;;20.24;49.72;99397.38;2236940;26;7035;-73
2024/04/16 02:01:47;;;;;;;;;;;;;;;20.23;49.62;99395.91;2249070;26;2323;-73
2024/04/16 02:02:48;;;;;;;;;;;;;;;20.23;49.40;99399.50;2241011;26;2049;-74
2024/04/16 02:03:50;;;;;;;;;;;;;;;20.23;49.64;99390.88;2235046;26;2313;-74
2024/04/16 02:04:51;;;;;;;;;;;;;;;20.22;49.78;99394.44;2235374;26;2176;-73
2024/04/16 02:05:57;;;;;;;;;;;;;;;20.23;49.37;99398.78;2236291;26;2223;-73
2024/04/16 02:06:59;;;;;;;;;;;;;;;20.22;49.37;99383.66;2237216;26;2179;-73
2024/04/16 02:08:00;;;;;;;;;;;;;;;20.23;49.17;99395.91;2236267;26;2022;-74
2024/04/16 02:09:02;;;;;;;;;;;;;;;20.22;49.22;99394.44;2238100;26;2437;-73
2024/04/16 02:10:04;;;;;;;;;;;;;;;20.21;49.16;99393.00;2235945;26;2112;-73
2024/04/16 02:11:06;;;;;;;;;;;;;;;20.22;49.39;99394.44;2232156;26;2146;-73
2024/04/16 02:12:07;;;;;;;;;;;;;;;20.22;49.73;99403.06;2234246;26;2310;-74
2024/04/16 02:13:09;;;;;;;;;;;;;;;20.21;49.01;99395.88;2243690;26;2241;-73
2024/04/16 02:14:10;;;;;;;;;;;;;;;20.21;49.46;99393.00;2231687;26;2232;-73
2024/04/16 02:15:11;;;;;;;;;;;;;;;20.22;49.62;99394.44;2235653;26;2317;-73
2024/04/16 02:16:13;;;;;;;;;;;;;;;20.20;49.31;99398.00;2237431;26;2179;-73
2024/04/16 02:17:15;;;;;;;;;;;;;;;20.21;49.13;99393.00;2236131;26;2142;-74
2024/04/16 02:18:17;;;;;;;;;;;;;;;20.21;49.48;99393.00;2249991;26;2239;-73
2024/04/16 02:19:18;;;;;;;;;;;;;;;20.20;49.41;99397.25;2256830;26;2268;-73
2024/04/16 02:20:20;;;;;;;;;;;;;;;20.21;49.48;99398.75;2237144;26;2224;-74
2024/04/16 02:21:21;;;;;;;;;;;;;;;20.20;49.14;99397.25;2235727;26;2411;-74
2024/04/16 02:22:23;;;;;;;;;;;;;;;20.20;49.60;99397.25;2236667;26;2130;-73
2024/04/16 02:23:24;;;;;;;;;;;;;;;20.19;49.17;99395.81;2235259;26;2461;-73
2024/04/16 02:24:26;;;;;;;;;;;;;;;20.19;49.71;99395.81;2234987;26;2416;-74
2024/04/16 02:25:27;;;;;;;;;;;;;;;20.19;49.06;99401.56;2237057;26;2258;-74
2024/04/16 02:26:29;;;;;;;;;;;;;;;20.19;49.07;99395.81;2231359;26;2097;-73
2024/04/16 02:27:30;;;;;;;;;;;;;;;20.20;49.61;99408.75;2235602;26;2253;-73
2024/04/16 02:28:32;;;;;;;;;;;;;;;20.18;49.12;99400.84;2237376;26;2194;-74
2024/04/16 02:29:33;;;;;;;;;;;;;;;20.18;49.49;99400.84;2237183;26;2173;-73
2024/04/16 02:30:37;;;;;;;;;;;;;;;20.19;49.46;99398.69;2235958;26;5907;-74
2024/04/16 02:31:38;;;;;;;;;;;;;;;20.18;49.17;99400.09;2249174;26;2116;-73
2024/04/16 02:32:40;;;;;;;;;;;;;;;20.19;49.15;99401.56;2247197;26;2233;-73
2024/04/16 02:33:42;;;;;;;;;;;;;;;20.18;49.71;99397.22;2235501;26;2288;-73
2024/04/16 02:34:43;;;;;;;;;;;;;;;20.17;49.72;99398.63;2235354;26;2226;-74
2024/04/16 02:35:44;;;;;;;;;;;;;;;20.17;49.61;99395.75;2235647;26;2251;-73
2024/04/16 02:36:46;;;;;;;;;;;;;;;20.17;49.47;99395.75;2235522;26;2302;-73
2024/04/16 02:37:48;;;;;;;;;;;;;;;20.16;49.15;99397.91;2233305;26;2416;-73
2024/04/16 02:38:50;;;;;;;;;;;;;;;20.16;49.36;99394.28;2233378;26;2323;-74
2024/04/16 02:39:51;;;;;;;;;;;;;;;20.16;49.58;99397.16;2235918;26;2317;-73
2024/04/16 02:40:53;;;;;;;;;;;;;;;20.16;49.21;99388.53;2235070;26;2273;-73
2024/04/16 02:41:54;;;;;;;;;;;;;;;20.15;49.49;99395.72;2236309;26;2642;-73
2024/04/16 02:42:56;;;;;;;;;;;;;;;20.14;49.24;99389.25;2234471;26;2159;-73
2024/04/16 02:43:58;;;;;;;;;;;;;;;20.15;49.19;99384.22;2235969;26;2260;-74
2024/04/16 02:44:59;;;;;;;;;;;;;;;20.15;49.43;99387.81;2234523;26;2311;-73
2024/04/16 02:46:01;;;;;;;;;;;;;;;20.15;49.12;99378.47;2237302;26;2293;-73
2024/04/16 02:47:02;;;;;;;;;;;;;;;20.15;49.31;99381.34;2231970;26;2277;-73
2024/04/16 02:48:06;;;;;;;;;;;;;;;20.14;49.52;99380.63;2235119;26;2003;-73
2024/04/16 02:49:08;;;;;;;;;;;;;;;20.14;49.62;99377.75;2239186;26;2316;-73
2024/04/16 02:50:09;;;;;;;;;;;;;;;20.15;49.54;99378.47;2240261;26;2144;-72
2024/04/16 02:51:14;;;;;;;;;;;;;;;20.16;49.44;99374.16;2230914;26;2113;-69
2024/04/16 02:52:16;;;;;;;;;;;;;;;20.17;49.66;99378.53;2235412;26;2474;-70
2024/04/16 02:53:17;;;;;;;;;;;;;;;20.17;49.27;99375.66;2242869;26;2139;-75
2024/04/16 02:54:19;;;;;;;;;;;;;;;20.17;49.86;99378.53;2231922;26;2308;-63
2024/04/16 02:55:23;;;;;;;;;;;;;;;20.18;49.09;99377.09;2232809;26;2229;-64
2024/04/16 02:56:25;;;;;;;;;;;;;;;20.18;49.16;99372.09;2234225;26;2478;-63
2024/04/16 02:57:26;;;;;;;;;;;;;;;20.20;49.24;99368.53;2230363;26;2143;-64
2024/04/16 02:58:28;;;;;;;;;;;;;;;20.21;49.59;99370.00;2234311;26;2038;-63
2024/04/16 02:59:29;;;;;;;;;;;;;;;20.21;49.74;99370.00;2230154;26;2190;-64
2024/04/16 03:00:31;;;;;;;;;;;;;;;20.21;49.35;99370.72;2233933;26;5936;-64
2024/04/16 03:01:32;;;;;;;;;;;;;;;20.22;49.50;99371.44;2235525;26;2301;-64
2024/04/16 03:02:34;;;;;;;;;;;;;;;20.23;49.40;99373.66;2231617;26;2245;-64
2024/04/16 03:03:36;;;;;;;;;;;;;;;20.24;49.77;99369.34;2234902;26;2260;-64
2024/04/16 03:04:38;;;;;;;;;;;;;;;20.24;49.37;99363.59;2233051;26;2274;-64
2024/04/16 03:05:40;;;;;;;;;;;;;;;20.25;49.33;99370.81;2237300;26;2067;-64
2024/04/16 03:06:41;;;;;;;;;;;;;;;20.25;49.48;99365.06;2231550;26;2173;-63
2024/04/16 03:07:44;;;;;;;;;;;;;;;20.27;49.17;99364.38;2233441;26;2250;-63
2024/04/16 03:08:46;;;;;;;;;;;;;;;20.26;49.16;99360.03;2234934;26;2352;-63
2024/04/16 03:09:47;;;;;;;;;;;;;;;20.25;49.97;99365.06;2236126;26;2247;-64
2024/04/16 03:10:49;;;;;;;;;;;;;;;20.26;49.19;99362.91;2237504;26;2093;-64
2024/04/16 03:11:50;;;;;;;;;;;;;;;20.26;49.29;99362.91;2233637;26;2286;-63
2024/04/16 03:12:52;;;;;;;;;;;;;;;20.25;49.96;99367.22;2234617;26;2248;-63
2024/04/16 03:13:54;;;;;;;;;;;;;;;20.25;49.59;99358.59;2236710;26;2233;-63
2024/04/16 03:14:55;;;;;;;;;;;;;;;20.25;49.76;99356.44;2229193;26;2212;-64
2024/04/16 03:15:57;;;;;;;;;;;;;;;20.26;49.94;99357.16;2231121;26;2401;-63
2024/04/16 03:16:59;;;;;;;;;;;;;;;20.26;50.08;99357.16;2229577;26;2061;-64
2024/04/16 03:18:00;;;;;;;;;;;;;;;20.26;49.52;99357.91;2235953;26;2209;-64
2024/04/16 03:19:02;;;;;;;;;;;;;;;20.27;49.74;99358.63;2235891;26;2142;-63
2024/04/16 03:20:04;;;;;;;;;;;;;;;20.26;50.01;99360.78;2233317;26;2364;-63
2024/04/16 03:21:05;;;;;;;;;;;;;;;20.27;50.06;99352.88;2239997;26;2147;-63
2024/04/16 03:22:07;;;;;;;;;;;;;;;20.28;50.04;99357.94;2243268;26;2212;-63
2024/04/16 03:23:08;;;;;;;;;;;;;;;20.29;49.83;99358.66;2235835;26;2437;-63
2024/04/16 03:24:10;;;;;;;;;;;;;;;20.28;49.63;99360.81;2235617;26;2461;-63
2024/04/16 03:25:12;;;;;;;;;;;;;;;20.28;49.44;99357.94;2234671;26;2364;-63
2024/04/16 03:26:14;;;;;;;;;;;;;;;20.30;49.73;99363.75;2235089;26;2278;-64
2024/04/16 03:27:15;;;;;;;;;;;;;;;20.32;49.84;99357.31;2233159;26;2451;-63
2024/04/16 03:28:17;;;;;;;;;;;;;;;20.32;50.17;99351.56;2234340;26;2467;-64
2024/04/16 03:29:18;;;;;;;;;;;;;;;20.31;49.49;99355.84;2232842;26;2340;-64
2024/04/16 03:30:20;;;;;;;;;;;;;;;20.33;49.65;99358.78;2232357;26;5959;-64
2024/04/16 03:31:21;;;;;;;;;;;;;;;20.34;49.52;99360.25;2233907;26;2208;-64
2024/04/16 03:32:23;;;;;;;;;;;;;;;20.34;49.45;99360.25;2233361;26;2273;-64
2024/04/16 03:33:24;;;;;;;;;;;;;;;20.36;49.95;99368.16;2236707;26;2022;-64
2024/04/16 03:34:26;;;;;;;;;;;;;;;20.35;49.54;99366.72;2232124;26;2370;-63
2024/04/16 03:35:28;;;;;;;;;;;;;;;20.35;49.99;99361.69;2234096;26;2309;-64
2024/04/16 03:36:29;;;;;;;;;;;;;;;20.34;49.91;99360.25;2236328;26;2133;-63
2024/04/16 03:37:30;;;;;;;;;;;;;;;20.36;49.91;99368.88;2235830;26;2457;-64
2024/04/16 03:38:36;;;;;;;;;;;;;;;20.35;50.01;99367.44;2231111;26;2273;-64
2024/04/16 03:39:37;;;;;;;;;;;;;;;20.34;49.67;99363.13;2232687;26;2193;-64
2024/04/16 03:40:39;;;;;;;;;;;;;;;20.34;50.17;99371.75;2236370;26;2032;-63
2024/04/16 03:41:40;;;;;;;;;;;;;;;20.35;50.08;99367.44;2236368;26;2233;-64
2024/04/16 03:42:42;;;;;;;;;;;;;;;20.34;50.39;99366.00;2235392;26;2265;-64
2024/04/16 03:43:43;;;;;;;;;;;;;;;20.33;50.19;99358.78;2231804;26;2077;-63
2024/04/16 03:44:45;;;;;;;;;;;;;;;20.34;49.90;99366.00;2233699;26;2333;-63
2024/04/16 03:45:56;;;;;;;;;;;;;;;20.33;50.02;99361.66;2234125;26;2440;-63
2024/04/16 03:46:58;;;;;;;;;;;;;;;20.33;50.10;99370.25;2235675;26;2448;-64
2024/04/16 03:48:00;;;;;;;;;;;;;;;20.33;50.08;99364.53;2240794;26;2241;-64
2024/04/16 03:49:01;;;;;;;;;;;;;;;20.33;50.14;99364.53;2235354;26;2230;-63
2024/04/16 03:50:03;;;;;;;;;;;;;;;20.34;49.73;99371.75;2236786;26;2305;-63
2024/04/16 03:51:04;;;;;;;;;;;;;;;20.34;50.21;99368.88;2236542;26;2430;-63
2024/04/16 03:52:06;;;;;;;;;;;;;;;20.34;49.87;99365.25;2238225;26;2101;-64
2024/04/16 03:53:07;;;;;;;;;;;;;;;20.35;50.06;99367.44;2235696;26;2023;-63
2024/04/16 03:54:09;;;;;;;;;;;;;;;20.35;49.81;99364.56;2236999;26;2136;-63
2024/04/16 03:55:10;;;;;;;;;;;;;;;20.36;50.00;99374.63;2235762;26;2367;-63
2024/04/16 03:56:12;;;;;;;;;;;;;;;20.36;49.76;99368.88;2235110;26;2285;-64
2024/04/16 03:57:13;;;;;;;;;;;;;;;20.38;50.39;99371.09;2235709;26;2266;-64
2024/04/16 03:58:15;;;;;;;;;;;;;;;20.38;49.89;99371.81;2232066;26;2479;-64
2024/04/16 04:01:57;;;;;;;;;;;;;;;20.40;49.83;99369.00;2236221;26;2297;-63
2024/04/16 04:02:58;;;;;;;;;;;;;;;20.40;49.90;99371.13;2232787;26;2225;-64
2024/04/16 04:04:00;;;;;;;;;;;;;;;20.40;49.88;99363.22;2238151;26;2233;-63
2024/04/16 04:05:01;;;;;;;;;;;;;;;20.39;50.18;99367.53;2235276;26;2288;-64
2024/04/16 04:06:03;;;;;;;;;;;;;;;20.39;50.08;99367.53;2234386;26;2174;-64
2024/04/16 04:07:05;;;;;;;;;;;;;;;20.40;50.02;99357.50;2233994;26;2508;-64
2024/04/16 04:08:06;;;;;;;;;;;;;;;20.39;49.67;99361.78;2238276;26;2244;-64
2024/04/16 04:09:08;;;;;;;;;;;;;;;20.39;50.07;99364.66;2240982;26;2142;-64
2024/04/16 04:10:09;;;;;;;;;;;;;;;20.39;50.18;99361.78;2237740;26;2179;-64
2024/04/16 04:11:11;;;;;;;;;;;;;;;20.40;50.01;99369.00;2233248;26;2598;-64
2024/04/16 04:12:12;;;;;;;;;;;;;;;20.40;49.90;99365.38;2232856;26;2188;-63
2024/04/16 04:13:14;;;;;;;;;;;;;;;20.40;50.20;99368.25;2233604;26;2278;-64
2024/04/16 04:14:15;;;;;;;;;;;;;;;20.39;50.41;99369.69;2237683;26;2475;-64
2024/04/16 04:15:17;;;;;;;;;;;;;;;20.38;50.05;99360.31;2236485;26;2088;-64
2024/04/16 04:16:18;;;;;;;;;;;;;;;20.38;50.20;99368.94;2238148;26;2158;-63
2024/04/16 04:17:20;;;;;;;;;;;;;;;20.39;50.50;99367.53;2234674;26;2701;-64
2024/04/16 04:18:21;;;;;;;;;;;;;;;20.38;50.10;99354.56;2236699;26;2776;-64
2024/04/16 04:19:23;;;;;;;;;;;;;;;20.40;50.12;99366.09;2236081;26;2433;-64
2024/04/16 04:20:24;;;;;;;;;;;;;;;20.40;50.08;99363.22;2237776;26;2177;-64
2024/04/16 04:21:26;;;;;;;;;;;;;;;20.40;50.05;99369.00;2237372;26;2238;-63
2024/04/16 04:22:27;;;;;;;;;;;;;;;20.40;50.14;99362.50;2233710;26;2249;-64
2024/04/16 04:23:29;;;;;;;;;;;;;;;20.40;50.55;99363.22;2233837;26;2032;-64
2024/04/16 04:24:30;;;;;;;;;;;;;;;20.41;50.30;99364.72;2237543;26;1987;-64
2024/04/16 04:25:35;;;;;;;;;;;;;;;20.42;50.16;99360.41;2235074;26;2116;-64
2024/04/16 04:26:37;;;;;;;;;;;;;;;20.41;49.98;99356.09;2234180;26;2188;-64
2024/04/16 04:27:41;;;;;;;;;;;;;;;20.43;50.39;99361.13;2234175;26;2297;-64
2024/04/16 04:28:42;;;;;;;;;;;;;;;20.42;49.68;99354.66;2238394;26;2454;-64
2024/04/16 04:29:44;;;;;;;;;;;;;;;20.43;50.51;99364.75;2234778;26;2274;-65
2024/04/16 04:30:47;;;;;;;;;;;;;;;20.40;49.90;99363.22;2237210;26;5917;-63
2024/04/16 04:31:49;;;;;;;;;;;;;;;20.12;48.60;99368.34;2236126;26;2282;-64
2024/04/16 04:32:51;;;;;;;;;;;;;;;19.51;45.96;99367.53;2231417;26;2472;-68
2024/04/16 04:33:52;;;;;;;;;;;;;;;19.29;45.35;99359.78;2235022;26;2241;-63
2024/04/16 04:34:54;;;;;;;;;;;;;;;19.39;45.89;99362.19;2235179;26;2331;-66
2024/04/16 04:35:55;;;;;;;;;;;;;;;19.59;47.02;99364.88;2234225;26;2516;-64
2024/04/16 04:36:57;;;;;;;;;;;;;;;19.79;47.57;99367.53;2236346;26;2208;-67
2024/04/16 04:37:58;;;;;;;;;;;;;;;19.96;47.19;99363.66;2229615;26;2152;-64
2024/04/16 04:38:59;;;;;;;;;;;;;;;20.07;46.47;99364.66;2237664;26;2216;-64
2024/04/16 04:40:01;;;;;;;;;;;;;;;20.08;47.66;99369.69;2234640;26;2266;-63
2024/04/16 04:41:03;;;;;;;;;;;;;;;20.07;47.08;99371.13;2234642;26;2610;-63
2024/04/16 04:42:04;;;;;;;;;;;;;;;20.07;46.80;99361.78;2238850;26;2369;-64
2024/04/16 04:43:06;;;;;;;;;;;;;;;20.09;47.91;99368.28;2236993;26;2088;-64
2024/04/16 04:44:07;;;;;;;;;;;;;;;20.13;47.80;99378.41;2235934;26;2176;-64
2024/04/16 04:45:09;;;;;;;;;;;;;;;20.15;47.74;99378.47;2232374;26;2272;-64
2024/04/16 04:46:10;;;;;;;;;;;;;;;20.16;47.93;99363.44;2238174;26;2124;-64
2024/04/16 04:47:12;;;;;;;;;;;;;;;20.18;48.04;99371.34;2240536;26;2223;-64
2024/04/16 04:48:14;;;;;;;;;;;;;;;20.20;48.15;99375.03;2236407;26;2258;-64
2024/04/16 04:49:15;;;;;;;;;;;;;;;20.23;48.12;99367.19;2237340;26;2309;-64
2024/04/16 04:50:17;;;;;;;;;;;;;;;20.25;47.69;99381.59;2233094;26;2307;-64
2024/04/16 04:51:18;;;;;;;;;;;;;;;20.26;47.84;99378.03;2237551;26;2139;-63
2024/04/16 04:52:20;;;;;;;;;;;;;;;20.28;47.85;99385.97;2241213;26;2168;-64
2024/04/16 04:53:21;;;;;;;;;;;;;;;20.28;47.53;99385.97;2236764;26;1994;-64
2024/04/16 04:54:23;;;;;;;;;;;;;;;20.29;47.75;99387.41;2237310;26;2185;-64
2024/04/16 04:55:24;;;;;;;;;;;;;;;20.30;48.00;99378.13;2238423;26;2189;-63
2024/04/16 04:56:28;;;;;;;;;;;;;;;20.32;47.57;99388.94;2228601;26;2131;-64
2024/04/16 04:57:29;;;;;;;;;;;;;;;20.34;47.70;99380.38;2236764;26;2234;-63
2024/04/16 04:58:31;;;;;;;;;;;;;;;20.34;47.94;99377.50;2237582;26;2188;-64
2024/04/16 04:59:32;;;;;;;;;;;;;;;20.36;47.93;99380.38;2235107;26;2389;-63
2024/04/16 05:00:34;;;;;;;;;;;;;;;20.36;47.77;99394.75;2238062;26;5849;-64
2024/04/16 05:01:35;;;;;;;;;;;;;;;20.36;47.96;99379.66;2241063;26;2295;-63
2024/04/16 05:02:37;;;;;;;;;;;;;;;20.35;47.89;99378.94;2245925;26;2152;-63
2024/04/16 05:03:38;;;;;;;;;;;;;;;20.36;47.97;99377.50;2237266;26;2118;-64
2024/04/16 05:04:40;;;;;;;;;;;;;;;20.36;47.71;99380.38;2236827;26;2189;-63
2024/04/16 05:05:45;;;;;;;;;;;;;;;20.35;48.32;99376.06;2241513;26;2097;-63
2024/04/16 05:06:47;;;;;;;;;;;;;;;20.36;48.13;99374.63;2234107;26;2239;-63
2024/04/16 05:07:48;;;;;;;;;;;;;;;20.36;48.61;99377.50;2238468;26;2171;-64
2024/04/16 05:08:49;;;;;;;;;;;;;;;20.37;48.38;99376.13;2237123;26;2131;-63
2024/04/16 05:09:53;;;;;;;;;;;;;;;20.36;48.44;99380.38;2236973;26;2192;-63
2024/04/16 05:10:54;;;;;;;;;;;;;;;20.35;48.62;99378.94;2230847;26;2316;-63
2024/04/16 05:11:56;;;;;;;;;;;;;;;20.36;48.56;99377.50;2238143;26;2195;-64
2024/04/16 05:12:57;;;;;;;;;;;;;;;20.35;48.90;99378.94;2235239;26;2108;-64
2024/04/16 05:13:59;;;;;;;;;;;;;;;20.35;48.74;99378.94;2236862;26;2358;-64
2024/04/16 05:15:00;;;;;;;;;;;;;;;20.35;48.41;99378.22;2237075;26;2258;-64
2024/04/16 05:16:02;;;;;;;;;;;;;;;20.35;48.72;99370.31;2240555;26;2455;-64
2024/04/16 05:17:03;;;;;;;;;;;;;;;20.36;48.54;99380.38;2236837;26;2232;-64
2024/04/16 05:18:05;;;;;;;;;;;;;;;20.35;48.79;99381.81;2237825;26;2229;-63
2024/04/16 05:19:06;;;;;;;;;;;;;;;20.37;48.79;99381.88;2235742;26;2187;-64
2024/04/16 05:20:08;;;;;;;;;;;;;;;20.37;48.89;99381.88;2233951;26;2311;-64
2024/04/16 05:21:11;;;;;;;;;;;;;;;20.37;48.66;99376.13;2237456;26;2256;-63
2024/04/16 05:22:13;;;;;;;;;;;;;;;20.37;48.45;99373.25;2237861;26;2292;-64
2024/04/16 05:23:14;;;;;;;;;;;;;;;20.38;48.77;99371.81;2236477;26;2298;-63
2024/04/16 05:24:16;;;;;;;;;;;;;;;20.38;48.73;99380.44;2237103;26;2197;-63
2024/04/16 05:25:17;;;;;;;;;;;;;;;20.38;48.58;99377.56;2236100;26;2162;-63
2024/04/16 05:26:21;;;;;;;;;;;;;;;20.39;48.79;99376.16;2236463;26;2337;-64
2024/04/16 05:27:23;;;;;;;;;;;;;;;20.41;48.88;99378.34;2237778;26;2324;-63
2024/04/16 05:28:24;;;;;;;;;;;;;;;20.40;48.80;99380.50;2236220;26;2128;-64